createdAt,value
2022-11-30T00:01:30.988Z,60.00
2022-11-30T00:06:33.522Z,66.70
2022-11-30T00:11:35.262Z,75.50
2022-11-30T00:16:40.166Z,61.60
2022-11-30T00:21:41.951Z,66.60
2022-11-30T00:26:43.689Z,56.50
2022-11-30T00:31:47.576Z,55.00
2022-11-30T00:36:49.398Z,60.10
2022-11-30T00:46:52.797Z,69.70
2022-11-30T00:51:54.587Z,68.40
2022-11-30T00:56:56.489Z,51.20
2022-11-30T01:01:58.239Z,69.00
2022-11-30T01:12:01.558Z,73.80
2022-11-30T01:22:05.035Z,57.70
2022-11-30T01:27:06.813Z,65.90
2022-11-30T01:32:08.546Z,73.70
2022-11-30T01:42:18.781Z,59.40
2022-11-30T01:47:34.728Z,62.70
2022-11-30T01:52:40.446Z,58.40
2022-11-30T01:57:47.198Z,62.20
2022-11-30T02:03:07.771Z,53.80
2022-11-30T02:08:11.132Z,59.40
2022-11-30T02:13:41.833Z,68.30
2022-11-30T02:18:55.730Z,60.50
2022-11-30T02:24:25.475Z,59.10
2022-11-30T02:29:34.688Z,58.70
2022-11-30T02:34:37.966Z,65.20
2022-11-30T02:39:39.697Z,71.80
2022-11-30T02:50:00.270Z,59.10
2022-11-30T02:55:07.541Z,59.10
2022-11-30T03:00:11.153Z,58.70
2022-11-30T03:05:12.917Z,64.80
2022-11-30T03:10:14.924Z,58.80
2022-11-30T03:15:16.816Z,65.20
2022-11-30T03:20:18.579Z,57.10
2022-11-30T03:30:21.980Z,66.00
2022-11-30T03:35:24.665Z,68.00
2022-11-30T03:40:26.392Z,76.00
2022-11-30T03:50:29.844Z,71.10
2022-11-30T03:55:31.572Z,64.70
2022-11-30T04:05:34.916Z,69.10
2022-11-30T04:10:36.660Z,67.60
2022-11-30T04:25:42.870Z,76.20
2022-11-30T04:30:46.005Z,74.20
2022-11-30T04:35:55.185Z,75.10
2022-11-30T04:40:56.971Z,77.80
2022-11-30T04:45:58.728Z,76.30
2022-11-30T04:56:11.086Z,80.70
2022-11-30T05:01:12.894Z,77.20
2022-11-30T05:06:14.652Z,72.90
2022-11-30T05:11:16.486Z,79.10
2022-11-30T05:16:18.285Z,71.50
2022-11-30T05:21:20.101Z,70.70
2022-11-30T05:26:21.821Z,76.80
2022-11-30T05:36:25.749Z,77.30
2022-11-30T05:41:27.547Z,75.80
2022-11-30T05:46:29.450Z,82.20
2022-11-30T05:51:31.411Z,72.60
2022-11-30T05:56:33.143Z,88.40
2022-11-30T06:06:36.536Z,76.10
2022-11-30T06:11:38.260Z,76.10
2022-11-30T06:21:42.016Z,67.90
2022-11-30T06:26:43.771Z,78.80
2022-11-30T06:31:45.618Z,70.20
2022-11-30T06:36:47.389Z,76.30
2022-11-30T06:46:56.430Z,75.70
2022-11-30T06:51:58.263Z,82.40
2022-11-30T06:57:00.013Z,76.40
2022-11-30T07:07:11.515Z,83.30
2022-11-30T07:12:13.359Z,108.80
2022-11-30T07:17:15.138Z,92.10
2022-11-30T07:22:16.866Z,86.90
2022-11-30T07:37:22.146Z,88.30
2022-11-30T07:42:23.868Z,96.20
2022-11-30T07:47:30.621Z,96.20
2022-11-30T07:52:32.497Z,89.60
2022-11-30T07:57:34.251Z,91.60
2022-11-30T08:02:36.000Z,87.60
2022-11-30T08:17:41.475Z,93.10
2022-11-30T08:22:43.261Z,93.40
2022-11-30T08:27:45.204Z,85.40
2022-11-30T08:32:46.898Z,89.70
2022-11-30T08:42:50.262Z,89.10
2022-11-30T08:47:54.191Z,85.10
2022-11-30T08:52:59.377Z,102.00
2022-11-30T08:58:03.517Z,81.30
2022-11-30T09:13:08.819Z,77.70
2022-11-30T09:18:11.410Z,81.40
2022-11-30T09:23:13.288Z,91.80
2022-11-30T09:28:15.007Z,94.30
2022-11-30T09:38:18.727Z,68.30
2022-11-30T09:43:49.684Z,77.40
2022-11-30T09:49:19.522Z,92.60
2022-11-30T09:54:35.725Z,80.40
2022-11-30T09:59:38.540Z,72.40
2022-11-30T10:04:40.758Z,79.40
2022-11-30T10:10:09.413Z,85.10
2022-11-30T10:15:38.055Z,75.20
2022-11-30T10:20:52.719Z,77.10
2022-11-30T10:26:04.570Z,83.00
2022-11-30T10:31:12.679Z,78.80
2022-11-30T10:36:33.462Z,70.10
2022-11-30T10:41:45.796Z,69.30
2022-11-30T10:47:01.077Z,71.90
2022-11-30T10:52:08.846Z,74.90
2022-11-30T10:57:10.778Z,66.90
2022-11-30T11:02:37.739Z,82.40
2022-11-30T11:07:50.448Z,67.30
2022-11-30T11:12:55.031Z,54.80
2022-11-30T11:18:32.207Z,62.50
2022-11-30T11:23:44.925Z,59.00
2022-11-30T11:28:52.119Z,61.50
2022-11-30T11:33:54.584Z,95.60
2022-11-30T11:38:57.625Z,66.50
2022-11-30T11:44:21.294Z,67.60
2022-11-30T11:49:29.692Z,61.20
2022-11-30T11:54:37.331Z,60.50
2022-11-30T12:00:02.348Z,58.60
2022-11-30T12:05:16.218Z,63.30
2022-11-30T12:10:56.889Z,77.20
2022-11-30T12:16:20.534Z,61.10
2022-11-30T12:21:30.514Z,56.80
2022-11-30T12:26:47.492Z,70.10
2022-11-30T12:31:56.884Z,64.10
2022-11-30T12:37:17.974Z,60.90
2022-11-30T12:42:32.347Z,77.60
2022-11-30T12:47:51.371Z,85.20
2022-11-30T12:53:14.249Z,83.60
2022-11-30T12:58:27.864Z,74.50
2022-11-30T13:03:44.103Z,82.30
2022-11-30T13:09:11.526Z,78.40
2022-11-30T13:14:20.482Z,65.70
2022-11-30T13:20:08.204Z,76.80
2022-11-30T13:26:06.738Z,68.20
2022-11-30T13:31:04.304Z,76.60
2022-11-30T13:36:22.230Z,59.60
2022-11-30T13:41:23.950Z,54.90
2022-11-30T13:56:36.677Z,56.00
2022-11-30T14:01:38.472Z,48.60
2022-11-30T14:06:43.226Z,67.70
2022-11-30T14:11:45.790Z,76.00
2022-11-30T14:16:47.826Z,68.60
2022-11-30T14:21:49.859Z,70.70
2022-11-30T14:26:51.996Z,66.20
2022-11-30T14:32:08.154Z,84.20
2022-11-30T14:37:19.175Z,66.60
2022-11-30T14:42:21.347Z,44.70
2022-11-30T14:47:26.911Z,75.50
2022-11-30T14:53:13.753Z,52.20
2022-11-30T14:58:16.326Z,54.90
2022-11-30T15:03:20.502Z,56.10
2022-11-30T15:08:24.093Z,47.60
2022-11-30T15:13:26.496Z,46.70
2022-11-30T15:18:28.241Z,56.50
2022-11-30T15:23:30.263Z,51.70
2022-11-30T15:28:38.066Z,60.30
2022-11-30T15:33:46.166Z,49.40
2022-11-30T15:38:53.081Z,56.40
2022-11-30T15:43:57.355Z,64.60
2022-11-30T15:49:22.727Z,64.60
2022-11-30T15:54:47.162Z,56.00
2022-11-30T16:00:09.119Z,53.40
2022-11-30T16:05:14.900Z,47.90
2022-11-30T16:10:40.107Z,70.10
2022-11-30T16:15:47.622Z,62.10
2022-11-30T16:20:56.460Z,52.70
2022-11-30T16:25:58.460Z,80.80
2022-11-30T16:31:00.637Z,72.40
2022-11-30T16:36:07.527Z,69.20
2022-11-30T16:41:20.996Z,72.30
2022-11-30T16:46:25.626Z,55.30
2022-11-30T16:51:30.794Z,54.10
2022-11-30T16:56:33.392Z,63.60
2022-11-30T17:01:42.799Z,52.20
2022-11-30T17:06:49.983Z,55.70
2022-11-30T17:11:52.736Z,61.80
2022-11-30T17:16:54.676Z,63.80
2022-11-30T17:21:56.803Z,59.40
2022-11-30T17:27:00.037Z,66.70
2022-11-30T17:32:01.807Z,68.70
2022-11-30T17:37:03.673Z,81.90
2022-11-30T17:42:06.167Z,64.30
2022-11-30T17:47:07.920Z,74.20
2022-11-30T17:52:10.229Z,89.60
2022-11-30T17:57:11.985Z,83.70
2022-11-30T18:07:15.794Z,76.80
2022-11-30T18:12:17.645Z,108.90
2022-11-30T18:17:19.403Z,76.40
2022-11-30T18:22:21.205Z,61.30
2022-11-30T18:27:23.018Z,62.50
2022-11-30T18:32:24.809Z,54.90
2022-11-30T18:37:26.635Z,61.60
2022-11-30T18:42:28.411Z,54.00
2022-11-30T18:47:30.294Z,62.60
2022-11-30T18:52:32.079Z,60.80
2022-11-30T18:57:35.897Z,60.90
2022-11-30T19:02:37.769Z,54.40
2022-11-30T19:07:40.037Z,55.00
2022-11-30T19:12:42.040Z,75.30
2022-11-30T19:17:44.134Z,60.40
2022-11-30T19:22:46.004Z,59.40
2022-11-30T19:27:47.664Z,59.40
2022-11-30T19:32:49.442Z,60.20
2022-11-30T19:37:54.203Z,64.00
2022-11-30T19:42:56.595Z,61.90
2022-11-30T19:47:58.372Z,63.90
2022-11-30T19:53:00.461Z,63.30
2022-11-30T19:58:02.343Z,63.80
2022-11-30T20:03:09.740Z,65.60
2022-11-30T20:08:11.591Z,57.40
2022-11-30T20:13:13.505Z,55.50
2022-11-30T20:18:15.282Z,59.60
2022-11-30T20:23:17.160Z,54.10
2022-11-30T20:28:18.940Z,60.90
2022-11-30T20:33:20.678Z,58.00
2022-11-30T20:38:22.596Z,70.50
2022-11-30T20:43:25.070Z,61.90
2022-11-30T20:48:26.951Z,54.70
2022-11-30T20:53:28.874Z,66.40
2022-11-30T21:03:32.918Z,73.70
2022-11-30T21:08:36.451Z,65.50
2022-11-30T21:13:39.541Z,58.30
2022-11-30T21:18:44.042Z,58.90
2022-11-30T21:23:47.322Z,53.60
2022-11-30T21:28:53.282Z,73.60
2022-11-30T21:33:55.153Z,58.60
2022-11-30T21:39:04.997Z,65.20
2022-11-30T21:44:12.325Z,59.50
2022-11-30T21:49:15.740Z,62.00
2022-11-30T21:54:17.619Z,55.80
2022-11-30T21:59:19.496Z,49.50
2022-11-30T22:04:21.421Z,52.10
2022-11-30T22:09:23.361Z,56.70
2022-11-30T22:14:25.967Z,67.10
2022-11-30T22:19:27.711Z,61.50
2022-11-30T22:24:29.568Z,59.10
2022-11-30T22:29:31.557Z,57.60
2022-11-30T22:34:37.986Z,54.10
2022-11-30T22:39:39.864Z,70.10
2022-11-30T22:44:42.255Z,68.70
2022-11-30T22:49:44.114Z,58.30
2022-11-30T22:54:46.010Z,49.90
2022-11-30T22:59:48.129Z,46.80
2022-11-30T23:04:50.183Z,56.90
2022-11-30T23:09:52.066Z,51.20
2022-11-30T23:14:53.942Z,56.00
2022-11-30T23:19:55.674Z,67.20
2022-11-30T23:24:57.497Z,49.90
2022-11-30T23:29:59.479Z,58.90
2022-11-30T23:35:01.240Z,54.10
2022-11-30T23:40:04.260Z,59.30
2022-11-30T23:45:06.852Z,57.20
2022-11-30T23:50:09.348Z,55.20
2022-11-30T23:55:11.339Z,50.00
